Time;durP1;ratioP1;P1;durP2;ratioP2;P2;SDS_P1;SDS_P2;PMS_P1;PMS_P2;Temp;Humidity;BMP_temperature;BMP_pressure;BME280_temperature;BME280_humidity;BME280_pressure;Samples;Min_cycle;Max_cycle;Signal;HPM_P1;HPM_P2
2021/05/26 00:00:29;;;;;;;16.23;9.00;;;9.20;99.90;;;;;;5053741;28;20037;-75
2021/05/26 00:02:55;;;;;;;12.70;8.25;;;9.20;99.90;;;;;;5036606;28;20040;-75
2021/05/26 00:05:21;;;;;;;13.27;8.88;;;9.20;99.90;;;;;;5054197;28;20039;-75
2021/05/26 00:07:47;;;;;;;14.45;9.27;;;9.10;99.90;;;;;;5054031;28;20041;-75
2021/05/26 00:10:13;;;;;;;13.32;8.43;;;9.10;99.90;;;;;;5053886;28;20037;-75
2021/05/26 00:12:38;;;;;;;14.88;8.43;;;9.10;99.90;;;;;;5053887;28;20060;-75
2021/05/26 00:15:06;;;;;;;11.25;8.23;;;9.00;99.90;;;;;;5054055;28;20037;-75
2021/05/26 00:17:32;;;;;;;15.20;9.55;;;9.00;99.90;;;;;;5053779;28;20448;-75
2021/05/26 00:19:59;;;;;;;15.50;9.18;;;9.00;99.90;;;;;;5053845;28;20071;-75
2021/05/26 00:22:26;;;;;;;13.15;9.57;;;9.00;99.90;;;;;;5053640;28;20063;-75
2021/05/26 00:24:51;;;;;;;15.18;9.40;;;9.00;99.90;;;;;;5053609;28;20041;-75
2021/05/26 00:27:17;;;;;;;17.35;8.48;;;9.00;99.90;;;;;;5054079;28;20435;-74
2021/05/26 00:29:45;;;;;;;14.30;8.77;;;9.00;99.90;;;;;;5053198;28;20049;-75
2021/05/26 00:32:11;;;;;;;14.23;8.82;;;8.90;99.90;;;;;;5053136;28;20041;-75
2021/05/26 00:34:36;;;;;;;14.82;9.35;;;8.90;99.90;;;;;;5053354;28;20044;-75
2021/05/26 00:37:04;;;;;;;14.27;9.82;;;8.90;99.90;;;;;;5054165;28;20050;-75
2021/05/26 00:39:30;;;;;;;13.32;9.30;;;8.90;99.90;;;;;;5053401;28;20075;-75
2021/05/26 00:41:55;;;;;;;12.10;8.65;;;8.90;99.90;;;;;;5054133;28;20072;-75
2021/05/26 00:44:21;;;;;;;12.00;9.07;;;8.90;99.90;;;;;;5053441;28;20095;-75
2021/05/26 00:46:47;;;;;;;15.18;9.23;;;8.80;99.90;;;;;;5053505;28;20064;-75
2021/05/26 00:49:13;;;;;;;20.42;10.32;;;8.80;99.90;;;;;;5053225;28;20056;-75
2021/05/26 00:51:39;;;;;;;13.77;9.95;;;8.90;99.90;;;;;;5053094;28;20055;-75
2021/05/26 00:54:05;;;;;;;14.77;10.52;;;8.90;99.90;;;;;;5053315;28;20041;-75
2021/05/26 00:56:34;;;;;;;18.00;10.73;;;8.80;99.90;;;;;;5053630;28;20048;-75
2021/05/26 00:59:06;;;;;;;20.38;10.25;;;8.80;99.90;;;;;;5052913;28;20045;-75
2021/05/26 01:01:32;;;;;;;16.70;10.65;;;8.80;99.90;;;;;;5053057;28;20041;-75
2021/05/26 01:03:58;;;;;;;16.58;10.52;;;8.80;99.90;;;;;;5053562;28;20159;-75
2021/05/26 01:06:24;;;;;;;12.75;9.60;;;8.80;99.90;;;;;;5053225;28;20492;-75
2021/05/26 01:08:50;;;;;;;16.80;10.65;;;8.80;99.90;;;;;;5053315;28;20040;-75
2021/05/26 01:11:17;;;;;;;18.25;10.32;;;8.80;99.90;;;;;;5052879;28;20448;-75
2021/05/26 01:13:45;;;;;;;13.98;10.23;;;8.80;99.90;;;;;;5053311;28;20043;-75
2021/05/26 01:16:11;;;;;;;18.67;10.82;;;8.80;99.90;;;;;;5053172;28;20075;-75
2021/05/26 01:18:37;;;;;;;16.52;10.25;;;8.80;99.90;;;;;;5035122;28;20098;-75
2021/05/26 01:21:06;;;;;;;17.75;10.15;;;8.80;99.90;;;;;;5052740;28;20033;-75
2021/05/26 01:23:33;;;;;;;15.85;9.82;;;8.80;99.90;;;;;;5053481;28;20091;-75
2021/05/26 01:26:00;;;;;;;14.07;9.95;;;8.80;99.90;;;;;;5053407;28;20048;-75
2021/05/26 01:28:28;;;;;;;10.95;8.73;;;8.80;99.90;;;;;;5053236;28;20116;-75
2021/05/26 01:30:56;;;;;;;15.55;9.45;;;8.80;99.90;;;;;;5053212;28;20385;-75
2021/05/26 01:33:24;;;;;;;17.45;10.02;;;8.80;99.90;;;;;;5052827;28;20041;-75
2021/05/26 01:35:50;;;;;;;16.60;10.15;;;8.80;99.90;;;;;;5053476;28;20445;-75
2021/05/26 01:38:18;;;;;;;16.30;10.13;;;8.80;99.90;;;;;;5052763;28;20076;-75
2021/05/26 01:40:44;;;;;;;18.15;9.45;;;8.80;99.90;;;;;;5052649;28;20063;-75
2021/05/26 01:43:11;;;;;;;16.67;10.20;;;8.80;99.90;;;;;;5053138;28;20048;-75
2021/05/26 01:45:37;;;;;;;14.68;10.95;;;8.80;99.90;;;;;;5056832;28;20045;-75
2021/05/26 01:48:03;;;;;;;15.30;10.35;;;8.90;99.90;;;;;;5057035;28;20041;-75
2021/05/26 01:50:29;;;;;;;17.05;10.77;;;8.90;99.90;;;;;;5056243;28;20037;-75
2021/05/26 01:53:04;;;;;;;21.05;10.95;;;8.90;99.90;;;;;;5057160;28;20047;-75
2021/05/26 01:55:31;;;;;;;13.18;10.43;;;9.00;99.90;;;;;;5056402;28;20041;-74
2021/05/26 01:57:58;;;;;;;15.57;10.73;;;9.00;99.90;;;;;;5056751;28;20495;-75
2021/05/26 02:00:24;;;;;;;17.77;10.73;;;9.00;99.90;;;;;;5056320;28;20178;-75
2021/05/26 02:02:50;;;;;;;13.60;9.95;;;9.10;99.90;;;;;;5056344;28;20067;-74
2021/05/26 02:05:16;;;;;;;12.65;9.68;;;9.10;99.90;;;;;;5056910;28;20461;-75
2021/05/26 02:07:42;;;;;;;17.00;10.98;;;9.20;99.90;;;;;;5056211;28;20108;-75
2021/05/26 02:10:11;;;;;;;19.02;10.88;;;9.20;99.90;;;;;;5056156;28;20047;-75
2021/05/26 02:12:40;;;;;;;17.58;10.60;;;9.20;99.90;;;;;;5056380;28;20197;-75
2021/05/26 02:15:09;;;;;;;18.60;12.07;;;9.20;99.90;;;;;;5056323;28;20040;-75
2021/05/26 02:17:35;;;;;;;18.38;11.80;;;9.20;99.90;;;;;;5055974;28;20044;-75
2021/05/26 02:20:01;;;;;;;22.45;11.75;;;9.30;99.90;;;;;;5055595;28;20045;-75
2021/05/26 02:22:27;;;;;;;17.48;11.38;;;9.30;99.90;;;;;;5055882;28;20069;-75
2021/05/26 02:24:52;;;;;;;21.45;11.13;;;9.30;99.90;;;;;;5056174;28;20048;-75
2021/05/26 02:27:18;;;;;;;22.02;11.18;;;9.40;99.90;;;;;;5056004;28;20037;-75
2021/05/26 02:29:44;;;;;;;17.35;10.88;;;9.30;99.90;;;;;;5055697;28;20041;-75
2021/05/26 02:32:11;;;;;;;16.48;10.20;;;9.30;99.90;;;;;;5055765;28;20049;-75
2021/05/26 02:34:37;;;;;;;17.52;11.07;;;9.30;99.90;;;;;;5056121;28;20044;-75
2021/05/26 02:37:03;;;;;;;21.33;10.77;;;9.40;99.90;;;;;;5055989;28;20117;-75
2021/05/26 02:39:29;;;;;;;19.42;10.40;;;9.40;99.90;;;;;;5055370;28;20485;-75
2021/05/26 02:41:55;;;;;;;21.08;10.98;;;9.40;99.90;;;;;;5056240;28;20044;-75
2021/05/26 02:44:21;;;;;;;17.23;10.75;;;9.40;99.90;;;;;;5055963;28;20393;-74
2021/05/26 02:46:47;;;;;;;16.65;10.35;;;9.40;99.90;;;;;;5055619;28;20068;-75
2021/05/26 02:49:13;;;;;;;12.60;9.20;;;9.40;99.90;;;;;;5037552;28;20036;-75
2021/05/26 02:51:39;;;;;;;17.77;10.98;;;9.40;99.90;;;;;;5055200;28;20057;-75
2021/05/26 02:54:05;;;;;;;14.85;10.25;;;9.40;99.90;;;;;;5055586;28;20086;-75
2021/05/26 02:56:32;;;;;;;14.63;9.40;;;9.40;99.90;;;;;;5055742;28;20033;-75
2021/05/26 02:58:57;;;;;;;16.55;10.38;;;9.40;99.90;;;;;;5055672;28;20563;-75
2021/05/26 03:01:23;;;;;;;11.85;8.90;;;9.40;99.90;;;;;;5055087;28;20124;-75
2021/05/26 03:03:49;;;;;;;17.88;9.57;;;9.40;99.90;;;;;;5055445;28;20072;-75
2021/05/26 03:06:15;;;;;;;13.95;9.43;;;9.40;99.90;;;;;;5055364;28;20477;-75
2021/05/26 03:08:41;;;;;;;18.58;11.07;;;9.40;99.90;;;;;;5055070;28;20039;-75
2021/05/26 03:11:07;;;;;;;13.15;9.65;;;9.40;99.90;;;;;;5054912;28;20043;-75
2021/05/26 03:13:33;;;;;;;18.25;11.13;;;9.40;99.90;;;;;;5055057;28;20037;-75
2021/05/26 03:15:59;;;;;;;17.48;10.52;;;9.40;99.90;;;;;;5055449;28;20438;-75
2021/05/26 03:18:25;;;;;;;16.00;10.98;;;9.40;99.90;;;;;;5055279;28;20073;-75
2021/05/26 03:20:52;;;;;;;17.83;10.60;;;9.40;99.90;;;;;;5054414;28;20040;-75
2021/05/26 03:23:19;;;;;;;15.48;8.80;;;9.50;99.90;;;;;;5054704;28;20045;-75
2021/05/26 03:25:48;;;;;;;14.32;9.80;;;9.50;99.90;;;;;;5054692;28;20043;-75
2021/05/26 03:28:15;;;;;;;14.90;10.10;;;9.50;99.90;;;;;;5054961;28;20048;-75
2021/05/26 03:30:42;;;;;;;16.58;11.00;;;9.50;99.90;;;;;;5054322;28;20528;-75
2021/05/26 03:33:11;;;;;;;23.52;13.00;;;9.50;99.90;;;;;;5054866;28;20064;-75
2021/05/26 03:35:41;;;;;;;18.65;13.00;;;9.50;99.90;;;;;;5055075;28;20105;-75
2021/05/26 03:38:07;;;;;;;22.40;12.68;;;9.50;99.90;;;;;;5054816;28;20041;-75
2021/05/26 03:40:34;;;;;;;20.77;13.75;;;9.50;99.90;;;;;;5036592;28;20055;-75
2021/05/26 03:43:01;;;;;;;21.25;14.38;;;9.50;99.90;;;;;;5055029;28;20080;-75
2021/05/26 03:45:27;;;;;;;19.83;13.05;;;9.50;99.90;;;;;;5054753;28;20455;-75
2021/05/26 03:47:53;;;;;;;21.55;14.25;;;9.50;99.90;;;;;;5054306;28;20044;-75
2021/05/26 03:50:19;;;;;;;23.35;14.68;;;9.50;99.90;;;;;;5054256;28;20037;-75
2021/05/26 03:52:47;;;;;;;22.98;15.50;;;9.50;99.90;;;;;;5054045;28;20401;-75
2021/05/26 03:55:15;;;;;;;24.10;14.85;;;9.50;99.90;;;;;;5054802;28;20083;-75
2021/05/26 03:57:41;;;;;;;24.38;15.80;;;9.60;99.90;;;;;;5054063;28;20036;-75
2021/05/26 04:00:09;;;;;;;27.40;17.08;;;9.60;99.90;;;;;;5053857;28;20041;-75
2021/05/26 04:02:35;;;;;;;28.45;16.70;;;9.60;99.90;;;;;;5053951;28;20045;-75
2021/05/26 04:05:02;;;;;;;22.85;16.10;;;9.60;99.90;;;;;;5054282;28;20366;-75
2021/05/26 04:07:27;;;;;;;22.88;16.85;;;9.60;99.90;;;;;;5053593;28;20048;-75
2021/05/26 04:09:53;;;;;;;24.83;16.55;;;9.50;99.90;;;;;;5053745;28;20433;-75
2021/05/26 04:12:19;;;;;;;23.65;16.88;;;9.60;99.90;;;;;;5054359;28;20682;-75
2021/05/26 04:14:45;;;;;;;25.77;16.02;;;9.50;99.90;;;;;;5053828;28;20101;-74
2021/05/26 04:17:10;;;;;;;26.20;16.20;;;9.50;99.90;;;;;;5053911;28;20469;-75
2021/05/26 04:19:36;;;;;;;24.67;17.08;;;9.60;99.90;;;;;;5053180;28;20044;-75
2021/05/26 04:22:02;;;;;;;24.15;16.02;;;9.60;99.90;;;;;;5053807;28;20531;-75
2021/05/26 04:24:28;;;;;;;25.52;17.02;;;9.60;99.90;;;;;;5053884;28;20436;-75
2021/05/26 04:26:53;;;;;;;29.55;17.38;;;9.50;99.90;;;;;;5054144;28;20065;-75
2021/05/26 04:29:19;;;;;;;23.77;16.52;;;9.50;99.90;;;;;;5053316;28;20083;-75
2021/05/26 04:31:46;;;;;;;25.02;17.70;;;9.60;99.90;;;;;;5053563;28;20469;-75
2021/05/26 04:34:13;;;;;;;26.27;17.77;;;9.50;99.90;;;;;;5053426;28;20056;-75
2021/05/26 04:36:39;;;;;;;25.45;15.82;;;9.60;99.90;;;;;;5054109;28;20175;-75
2021/05/26 04:39:05;;;;;;;29.60;16.52;;;9.60;99.90;;;;;;5053569;28;20140;-75
2021/05/26 04:41:31;;;;;;;28.02;17.73;;;9.60;99.90;;;;;;5036174;28;20045;-75
2021/05/26 04:43:57;;;;;;;28.13;18.08;;;9.60;99.90;;;;;;5053222;28;20039;-75
2021/05/26 04:46:22;;;;;;;27.67;17.55;;;9.60;99.90;;;;;;5053354;28;20043;-75
2021/05/26 04:48:48;;;;;;;30.02;17.65;;;9.60;99.90;;;;;;5053274;28;20059;-75
2021/05/26 04:51:14;;;;;;;31.58;18.75;;;9.50;99.90;;;;;;5053055;28;20044;-75
2021/05/26 04:53:40;;;;;;;32.67;19.58;;;9.50;99.90;;;;;;5053147;28;20079;-75
2021/05/26 04:56:05;;;;;;;32.90;20.38;;;9.60;99.90;;;;;;5053124;28;20036;-75
2021/05/26 04:58:31;;;;;;;38.40;22.70;;;9.70;99.90;;;;;;5053092;28;20381;-75
2021/05/26 05:00:57;;;;;;;34.10;21.55;;;9.80;99.90;;;;;;5053448;28;20044;-75
2021/05/26 05:03:22;;;;;;;38.17;21.58;;;9.90;99.90;;;;;;5053439;28;20037;-75
2021/05/26 05:05:48;;;;;;;38.47;22.73;;;9.90;99.90;;;;;;5052984;28;20044;-75
2021/05/26 05:08:14;;;;;;;40.40;22.45;;;9.90;99.90;;;;;;5053619;28;20052;-75
2021/05/26 05:10:39;;;;;;;37.30;22.48;;;9.90;99.90;;;;;;5052775;28;20067;-75
2021/05/26 05:13:05;;;;;;;38.60;22.60;;;9.90;99.90;;;;;;5053001;28;20080;-75
2021/05/26 05:15:31;;;;;;;36.13;23.13;;;9.90;99.90;;;;;;5053346;28;20037;-75
2021/05/26 05:17:57;;;;;;;38.28;22.42;;;9.90;99.90;;;;;;5053586;28;20071;-75
2021/05/26 05:20:23;;;;;;;40.55;23.42;;;9.90;99.90;;;;;;5056918;28;20068;-75
2021/05/26 05:22:53;;;;;;;41.38;24.23;;;10.00;99.90;;;;;;5057701;28;20164;-75
2021/05/26 05:25:20;;;;;;;46.65;23.85;;;10.00;99.90;;;;;;5057025;28;20065;-74
2021/05/26 05:27:46;;;;;;;33.30;22.38;;;10.00;99.90;;;;;;5056922;28;20112;-75
2021/05/26 05:30:12;;;;;;;39.72;23.85;;;10.00;99.90;;;;;;5057049;28;20116;-75
2021/05/26 05:32:38;;;;;;;40.75;24.85;;;10.10;99.90;;;;;;5057098;28;20040;-75
2021/05/26 05:35:06;;;;;;;47.40;26.42;;;10.00;99.90;;;;;;5056945;28;20457;-75
2021/05/26 05:37:31;;;;;;;46.00;25.83;;;10.00;99.90;;;;;;5057413;28;20037;-75
2021/05/26 05:39:57;;;;;;;50.70;26.65;;;10.10;99.90;;;;;;5056581;28;20041;-75
2021/05/26 05:42:23;;;;;;;49.38;26.42;;;10.10;99.90;;;;;;5056601;28;20068;-75
2021/05/26 05:44:48;;;;;;;44.63;25.75;;;10.10;99.90;;;;;;5056883;28;20461;-75
2021/05/26 05:47:15;;;;;;;43.08;23.95;;;10.10;99.90;;;;;;5056559;28;20087;-75
2021/05/26 05:49:40;;;;;;;40.53;23.80;;;10.10;99.90;;;;;;5056308;28;22356;-75
2021/05/26 05:52:11;;;;;;;37.47;23.70;;;10.10;99.90;;;;;;5056979;28;20119;-75
2021/05/26 05:54:37;;;;;;;42.13;23.23;;;10.10;99.90;;;;;;5056847;28;20075;-75
2021/05/26 05:57:04;;;;;;;45.97;24.13;;;10.10;99.90;;;;;;5056560;28;20120;-75
2021/05/26 05:59:30;;;;;;;37.85;22.75;;;10.00;99.90;;;;;;5056025;28;20045;-75
2021/05/26 06:01:55;;;;;;;42.88;23.05;;;10.00;99.90;;;;;;5056243;28;20040;-75
2021/05/26 06:04:21;;;;;;;38.35;24.00;;;10.10;99.90;;;;;;5056175;28;20040;-75
2021/05/26 06:06:47;;;;;;;38.72;22.33;;;10.00;99.90;;;;;;5056766;28;20033;-75
2021/05/26 06:09:12;;;;;;;37.17;22.50;;;10.00;99.90;;;;;;5055893;28;20044;-75
2021/05/26 06:11:38;;;;;;;33.95;20.20;;;10.00;99.90;;;;;;5056005;28;20117;-75
2021/05/26 06:14:08;;;;;;;39.35;21.65;;;10.00;99.90;;;;;;5038594;28;20045;-75
2021/05/26 06:16:37;;;;;;;34.03;19.13;;;10.00;99.90;;;;;;5056426;28;20048;-75
2021/05/26 06:19:04;;;;;;;36.40;19.63;;;10.00;99.90;;;;;;5055827;28;20369;-75
2021/05/26 06:21:30;;;;;;;34.42;18.25;;;10.00;99.90;;;;;;5055753;28;20520;-75
2021/05/26 06:23:57;;;;;;;38.53;20.58;;;10.10;99.90;;;;;;5055865;28;20424;-75
2021/05/26 06:26:22;;;;;;;40.58;20.23;;;10.10;99.90;;;;;;5038343;28;20036;-76
2021/05/26 06:28:48;;;;;;;35.30;20.58;;;10.20;99.90;;;;;;5055447;28;20048;-75
2021/05/26 06:31:15;;;;;;;35.25;20.13;;;10.20;99.90;;;;;;5055301;28;20537;-75
2021/05/26 06:33:43;;;;;;;29.67;19.58;;;10.20;99.90;;;;;;5055636;28;20051;-75
2021/05/26 06:36:11;;;;;;;31.08;19.17;;;10.30;99.90;;;;;;5055909;28;20053;-75
2021/05/26 06:38:37;;;;;;;31.23;19.13;;;10.30;99.90;;;;;;5055496;28;20045;-75
2021/05/26 06:41:03;;;;;;;35.33;19.63;;;10.40;99.90;;;;;;5055546;28;20090;-74
2021/05/26 06:43:29;;;;;;;26.10;16.65;;;10.60;99.90;;;;;;5055566;28;20056;-74
2021/05/26 06:45:55;;;;;;;24.10;15.68;;;10.60;99.90;;;;;;5055626;28;20121;-74
2021/05/26 06:48:21;;;;;;;24.88;15.13;;;10.60;99.90;;;;;;5055909;28;20120;-74
2021/05/26 06:50:46;;;;;;;21.42;13.80;;;10.50;99.90;;;;;;5055053;28;20393;-74
2021/05/26 06:53:12;;;;;;;22.67;13.45;;;10.60;99.90;;;;;;5055362;28;20041;-74
2021/05/26 06:55:38;;;;;;;19.83;14.18;;;10.60;99.90;;;;;;5055196;28;20120;-74
2021/05/26 06:58:03;;;;;;;24.05;13.05;;;10.60;99.90;;;;;;5037878;28;20467;-74
2021/05/26 07:00:30;;;;;;;22.73;14.48;;;10.50;99.90;;;;;;5055045;28;20037;-74
2021/05/26 07:02:56;;;;;;;19.25;12.48;;;10.60;99.90;;;;;;5055771;28;20048;-75
2021/05/26 07:05:22;;;;;;;19.15;12.02;;;10.70;99.90;;;;;;5055320;28;20037;-74
2021/05/26 07:07:48;;;;;;;18.35;12.10;;;10.70;99.90;;;;;;5055356;28;20043;-74
2021/05/26 07:10:16;;;;;;;23.10;12.77;;;10.70;99.90;;;;;;5054574;28;20040;-74
2021/05/26 07:12:42;;;;;;;23.73;13.32;;;10.90;99.90;;;;;;5054806;28;20102;-74
2021/05/26 07:15:08;;;;;;;16.23;11.55;;;11.30;99.90;;;;;;5054874;28;20397;-74
2021/05/26 07:17:33;;;;;;;16.00;10.77;;;11.50;99.90;;;;;;5055613;28;20037;-74
2021/05/26 07:19:59;;;;;;;17.73;9.30;;;12.20;99.90;;;;;;5054380;28;20039;-74
2021/05/26 07:22:25;;;;;;;11.25;8.60;;;12.40;99.90;;;;;;5037120;28;20060;-74
2021/05/26 07:24:51;;;;;;;9.65;7.32;;;12.30;99.90;;;;;;5055026;28;20058;-74
2021/05/26 07:27:16;;;;;;;14.40;7.93;;;12.10;99.90;;;;;;5054662;28;20033;-74
2021/05/26 07:29:42;;;;;;;9.75;6.75;;;12.00;99.90;;;;;;5054200;28;20044;-74
2021/05/26 07:32:07;;;;;;;8.32;6.72;;;11.80;99.90;;;;;;5054365;28;20044;-75
2021/05/26 07:34:33;;;;;;;8.32;6.22;;;11.70;99.90;;;;;;5054608;28;20064;-75
2021/05/26 07:36:59;;;;;;;11.38;7.57;;;11.60;99.90;;;;;;5037240;28;20048;-74
2021/05/26 07:39:28;;;;;;;9.73;7.10;;;11.60;99.90;;;;;;5053968;28;20459;-75
2021/05/26 07:41:53;;;;;;;10.07;6.65;;;11.50;99.90;;;;;;5053584;28;20475;-74
2021/05/26 07:44:19;;;;;;;7.85;6.80;;;11.40;99.90;;;;;;5054266;28;20098;-75
2021/05/26 07:46:45;;;;;;;7.05;6.10;;;11.40;99.90;;;;;;5054223;28;20069;-75
2021/05/26 07:49:11;;;;;;;7.53;5.43;;;11.40;99.90;;;;;;5054134;28;20462;-75
2021/05/26 07:51:41;;;;;;;9.23;5.03;;;11.30;99.90;;;;;;5054384;28;20481;-74
2021/05/26 07:54:06;;;;;;;5.35;4.60;;;11.30;99.90;;;;;;5054377;28;20045;-74
2021/05/26 07:56:34;;;;;;;8.00;5.00;;;11.30;99.90;;;;;;5054071;28;20043;-74
2021/05/26 07:58:59;;;;;;;8.07;5.30;;;11.40;99.90;;;;;;5054077;28;20482;-74
2021/05/26 08:01:25;;;;;;;7.13;4.80;;;11.40;99.90;;;;;;5053837;28;20115;-74
2021/05/26 08:03:51;;;;;;;7.75;5.10;;;11.50;99.90;;;;;;5054382;28;20048;-74
2021/05/26 08:06:16;;;;;;;9.05;5.03;;;11.60;99.90;;;;;;5053955;28;20443;-74
2021/05/26 08:08:42;;;;;;;5.43;4.78;;;11.60;99.90;;;;;;5053408;28;20040;-75
2021/05/26 08:11:08;;;;;;;6.13;4.10;;;11.60;99.90;;;;;;5052037;28;20072;-74
2021/05/26 08:13:34;;;;;;;6.03;4.30;;;11.60;99.90;;;;;;5052301;28;20037;-75
2021/05/26 08:16:00;;;;;;;5.63;4.18;;;11.80;99.90;;;;;;5052195;28;20603;-74
2021/05/26 08:18:26;;;;;;;6.53;3.60;;;11.90;99.90;;;;;;5052145;28;20048;-74
2021/05/26 08:20:51;;;;;;;4.95;3.92;;;12.30;99.90;;;;;;5051733;28;20037;-74
2021/05/26 08:23:17;;;;;;;5.57;4.30;;;12.60;99.90;;;;;;5052207;28;20036;-75
2021/05/26 08:25:43;;;;;;;5.70;4.65;;;13.20;99.90;;;;;;5053653;28;20061;-75
2021/05/26 08:28:09;;;;;;;3.95;3.60;;;13.80;99.90;;;;;;5053795;28;20064;-74
2021/05/26 08:30:35;;;;;;;6.43;4.32;;;14.10;99.30;;;;;;5053102;28;20037;-75
2021/05/26 08:33:01;;;;;;;4.90;3.72;;;14.60;99.10;;;;;;5053276;28;20052;-74
2021/05/26 08:35:26;;;;;;;4.22;3.35;;;14.80;97.70;;;;;;5053470;28;20041;-74
2021/05/26 08:37:53;;;;;;;4.88;3.75;;;14.80;97.30;;;;;;5053393;28;20048;-74
2021/05/26 08:40:19;;;;;;;4.38;3.70;;;15.20;97.30;;;;;;5053359;28;20040;-74
2021/05/26 08:42:46;;;;;;;4.07;3.35;;;15.30;97.20;;;;;;5053796;28;20466;-75
2021/05/26 08:45:13;;;;;;;3.45;3.15;;;15.70;97.00;;;;;;5053931;28;20036;-74
2021/05/26 08:47:42;;;;;;;3.83;2.25;;;15.90;96.30;;;;;;5053278;28;20036;-75
2021/05/26 08:50:08;;;;;;;4.38;2.65;;;16.00;95.20;;;;;;5052899;28;20033;-75
2021/05/26 08:52:34;;;;;;;3.58;2.30;;;15.80;94.60;;;;;;5053377;28;20067;-75
2021/05/26 08:55:01;;;;;;;3.15;1.88;;;15.30;94.20;;;;;;5053454;28;20548;-75
2021/05/26 08:57:27;;;;;;;3.45;1.63;;;14.80;92.80;;;;;;5053818;28;20037;-74
2021/05/26 08:59:52;;;;;;;3.55;2.65;;;14.40;94.20;;;;;;5052841;28;20460;-74
2021/05/26 09:02:18;;;;;;;4.90;2.47;;;15.00;95.50;;;;;;5053458;28;20044;-74
2021/05/26 09:04:44;;;;;;;4.15;2.60;;;15.10;94.70;;;;;;5043251;28;20029;-75
2021/05/26 09:07:14;;;;;;;3.03;1.73;;;15.50;94.20;;;;;;5053164;28;20041;-75
2021/05/26 09:09:55;;;;;;;4.03;2.08;;;15.40;93.50;;;;;;5052938;28;20163;-75
2021/05/26 09:12:40;;;;;;;4.25;2.17;;;15.10;93.00;;;;;;5053605;28;20045;-75
2021/05/26 09:15:15;;;;;;;1.77;1.40;;;14.80;93.10;;;;;;5053255;28;20080;-75
2021/05/26 09:17:42;;;;;;;2.20;1.10;;;15.00;91.80;;;;;;5052883;28;20043;-74
2021/05/26 09:20:28;;;;;;;2.72;0.90;;;15.30;91.60;;;;;;5052324;28;20051;-74
2021/05/26 09:23:08;;;;;;;7.07;1.92;;;15.00;92.00;;;;;;5052748;28;20048;-74
2021/05/26 09:25:37;;;;;;;2.95;1.40;;;14.90;91.80;;;;;;5053510;28;20099;-74
2021/05/26 09:28:32;;;;;;;5.32;1.40;;;14.60;91.30;;;;;;5053011;28;20068;-74
2021/05/26 09:31:04;;;;;;;5.05;1.25;;;14.20;91.60;;;;;;5053310;28;20526;-74
2021/05/26 09:33:33;;;;;;;1.30;0.93;;;13.90;92.00;;;;;;5053328;28;20091;-74
2021/05/26 09:36:12;;;;;;;2.38;1.13;;;13.60;93.10;;;;;;5034808;28;20110;-74
2021/05/26 09:38:58;;;;;;;2.08;0.80;;;13.60;92.40;;;;;;5052472;28;20519;-71
2021/05/26 09:41:24;;;;;;;1.95;0.82;;;13.70;91.50;;;;;;5052949;28;20029;-71
2021/05/26 09:43:56;;;;;;;2.20;0.82;;;14.50;92.90;;;;;;5052698;28;20495;-71
2021/05/26 09:46:21;;;;;;;0.70;0.70;;;15.00;91.90;;;;;;5052696;28;20116;-71
2021/05/26 09:49:05;;;;;;;1.13;0.68;;;14.70;90.80;;;;;;5052608;28;20152;-70
2021/05/26 09:51:34;;;;;;;2.78;0.80;;;14.20;90.80;;;;;;5052521;28;20094;-71
2021/05/26 09:54:14;;;;;;;3.15;0.82;;;14.10;91.20;;;;;;5052560;28;20493;-71
2021/05/26 09:56:41;;;;;;;4.18;0.77;;;13.80;90.90;;;;;;5052660;28;20037;-70
2021/05/26 09:59:07;;;;;;;1.67;0.80;;;13.50;92.40;;;;;;5052387;28;20041;-71
2021/05/26 10:01:35;;;;;;;0.95;0.70;;;13.40;92.40;;;;;;5052971;28;20528;-70
2021/05/26 10:04:02;;;;;;;4.20;0.95;;;13.40;92.40;;;;;;5052564;28;20401;-71
2021/05/26 10:06:28;;;;;;;3.15;0.70;;;13.50;92.90;;;;;;5056164;28;20032;-70
2021/05/26 10:08:58;;;;;;;2.80;0.80;;;14.00;92.70;;;;;;5055800;28;20440;-70
2021/05/26 10:11:28;;;;;;;2.10;0.77;;;13.80;91.70;;;;;;5056083;28;20045;-70
2021/05/26 10:13:54;;;;;;;1.23;0.90;;;13.90;92.10;;;;;;5056342;28;20047;-70
2021/05/26 10:16:21;;;;;;;1.60;0.63;;;14.40;93.00;;;;;;5056470;28;20084;-70
2021/05/26 10:18:48;;;;;;;0.30;0.22;;;14.60;91.90;;;;;;5056189;28;20037;-70
2021/05/26 10:21:16;;;;;;;0.73;0.30;;;14.90;90.10;;;;;;5056051;28;20068;-70
2021/05/26 10:23:42;;;;;;;1.70;0.40;;;15.20;90.30;;;;;;5056425;28;20064;-70
2021/05/26 10:26:08;;;;;;;0.52;0.20;;;15.20;89.70;;;;;;5055607;28;20064;-70
2021/05/26 10:28:34;;;;;;;1.58;0.45;;;15.30;86.20;;;;;;5056005;28;20073;-72
2021/05/26 10:31:02;;;;;;;1.58;0.40;;;15.50;88.30;;;;;;5055560;28;20476;-71
2021/05/26 10:33:39;;;;;;;1.35;0.38;;;15.40;86.90;;;;;;5054947;28;20041;-71
2021/05/26 10:36:08;;;;;;;1.23;0.40;;;15.00;85.60;;;;;;5055538;28;20087;-71
2021/05/26 10:38:52;;;;;;;1.15;0.40;;;14.70;85.80;;;;;;5055678;28;20033;-71
2021/05/26 10:41:18;;;;;;;0.77;0.40;;;14.40;87.90;;;;;;5055913;28;20040;-71
2021/05/26 10:43:51;;;;;;;3.00;0.50;;;14.10;86.00;;;;;;5055385;28;20048;-70
2021/05/26 10:46:37;;;;;;;2.47;0.93;;;14.00;86.70;;;;;;5055374;28;20072;-71
2021/05/26 10:49:05;;;;;;;0.60;0.45;;;13.80;87.20;;;;;;5054868;28;20488;-71
2021/05/26 10:51:52;;;;;;;2.70;0.60;;;13.60;88.10;;;;;;5055083;28;20049;-69
2021/05/26 10:54:40;;;;;;;2.13;0.47;;;13.40;90.10;;;;;;5055188;28;20037;-71
2021/05/26 10:57:07;;;;;;;2.35;0.70;;;13.30;89.70;;;;;;5054595;28;20040;-71
2021/05/26 10:59:33;;;;;;;1.85;0.73;;;13.30;90.40;;;;;;5053663;28;20044;-70
2021/05/26 11:02:05;;;;;;;1.25;0.88;;;13.40;91.70;;;;;;5055182;28;20056;-71
2021/05/26 11:04:39;;;;;;;1.15;0.50;;;13.50;90.30;;;;;;5055566;28;20064;-71
2021/05/26 11:07:24;;;;;;;2.38;0.80;;;13.50;90.20;;;;;;5054835;28;20033;-71
2021/05/26 11:09:57;;;;;;;2.08;1.67;;;13.60;90.50;;;;;;5054070;28;20127;-70
2021/05/26 11:12:24;;;;;;;1.65;0.90;;;13.60;89.70;;;;;;5055079;28;20480;-70
2021/05/26 11:14:54;;;;;;;5.88;1.23;;;13.70;90.20;;;;;;5054668;28;20258;-71
2021/05/26 11:17:31;;;;;;;4.00;1.55;;;13.70;90.30;;;;;;5053682;28;20033;-70
2021/05/26 11:20:07;;;;;;;1.55;1.20;;;13.80;90.80;;;;;;5035957;28;20344;-71
2021/05/26 11:22:33;;;;;;;1.65;0.70;;;13.90;91.00;;;;;;5054676;28;20115;-70
2021/05/26 11:24:58;;;;;;;4.50;1.25;;;14.20;89.10;;;;;;5054199;28;20163;-70
2021/05/26 11:27:26;;;;;;;2.50;0.82;;;14.20;88.60;;;;;;5055054;28;20037;-71
2021/05/26 11:30:00;;;;;;;3.50;0.95;;;14.10;87.80;;;;;;5041291;28;20041;-71
2021/05/26 11:32:25;;;;;;;;;;;14.00;88.40;;;;;;5034435;28;20424;-70
2021/05/26 11:34:54;;;;;;;3.72;1.25;;;14.10;90.60;;;;;;5034197;28;19917;-70
2021/05/26 11:37:30;;;;;;;3.20;1.52;;;14.50;89.90;;;;;;5034274;28;20428;-70
2021/05/26 11:39:57;;;;;;;4.10;1.17;;;14.70;90.60;;;;;;5033526;28;20037;-70
2021/05/26 11:42:29;;;;;;;4.22;1.17;;;14.70;85.60;;;;;;5034409;28;20532;-71
2021/05/26 11:45:02;;;;;;;3.25;1.15;;;14.60;87.90;;;;;;5034051;28;20472;-70
2021/05/26 11:47:32;;;;;;;;;;;14.30;85.30;;;;;;5016524;28;20044;-70
2021/05/26 11:49:58;;;;;;;4.80;2.25;;;14.00;85.20;;;;;;5033773;28;19917;-70
2021/05/26 11:52:25;;;;;;;3.50;1.60;;;14.00;87.60;;;;;;5034538;28;20041;-71
2021/05/26 11:54:58;;;;;;;4.50;1.17;;;14.00;87.10;;;;;;5033999;28;20057;-70
2021/05/26 11:57:38;;;;;;;2.90;1.38;;;14.00;88.40;;;;;;5033757;28;20430;-70
2021/05/26 12:00:06;;;;;;;3.03;1.45;;;14.10;87.50;;;;;;5033356;28;20045;-70
2021/05/26 12:02:32;;;;;;;4.00;1.45;;;14.20;86.80;;;;;;5033410;28;20041;-70
2021/05/26 12:04:58;;;;;;;2.45;1.30;;;14.30;88.50;;;;;;5034194;28;20033;-70
2021/05/26 12:07:25;;;;;;;3.50;1.48;;;14.30;86.50;;;;;;5033304;28;20037;-70
2021/05/26 12:10:00;;;;;;;1.95;1.08;;;14.40;84.40;;;;;;5033018;28;20034;-70
2021/05/26 12:12:26;;;;;;;3.45;1.20;;;14.20;83.50;;;;;;5033472;28;20092;-70
2021/05/26 12:14:53;;;;;;;3.15;1.20;;;14.20;82.10;;;;;;5033466;28;20044;-70
2021/05/26 12:17:20;;;;;;;3.53;1.67;;;14.20;79.00;;;;;;5033050;28;20112;-71
2021/05/26 12:19:48;;;;;;;2.30;1.20;;;14.20;81.50;;;;;;5033205;28;20046;-71
2021/05/26 12:22:18;;;;;;;3.30;1.50;;;14.30;82.30;;;;;;5033405;28;20041;-71
2021/05/26 12:25:03;;;;;;;1.73;1.30;;;14.50;83.80;;;;;;5035933;28;20104;-71
2021/05/26 12:27:30;;;;;;;4.20;1.42;;;14.60;83.70;;;;;;5053175;28;20063;-71
2021/05/26 12:29:55;;;;;;;5.47;1.50;;;14.80;82.30;;;;;;5052491;28;20112;-71
2021/05/26 12:32:27;;;;;;;3.78;2.05;;;15.10;83.00;;;;;;5053866;28;20136;-70
2021/05/26 12:34:58;;;;;;;3.95;1.35;;;15.00;80.70;;;;;;5052853;28;20091;-70
2021/05/26 12:37:44;;;;;;;5.43;0.93;;;14.90;81.70;;;;;;5053061;28;20094;-71
2021/05/26 12:40:36;;;;;;;4.07;1.63;;;14.50;78.60;;;;;;5050889;28;20331;-71
2021/05/26 12:43:04;;;;;;;3.42;1.15;;;14.30;80.80;;;;;;5015732;28;20049;-71